EDRY weather

Speyer Airport
Speyer, Rhineland-Palatinate, Germany

Public forecast

Using degrees Celsius for public forecast. Weather courtesy of forecast.io.

METAR (pilot weather report)

Report is more than 6 hours old.

Closest report is [Duplicate] Heidelberg Army Heliport, 9.5 nm (17.6 km) NE. Retrieved 2013/06/14 22:55 UTC (6 years ago):

ETIE 142255Z AUTO 10007KT 9999 SCT050 17/09 A3000 RMK AO2 SLP159 T01690085 401950098

TAF (pilot weather forecast)

Forecast is more than 12 hours old.

Closest forecast is Mannheim-City Airport, 10.4 nm (19.3 km) NNE. Retrieved 2012/03/06 06:30 UTC (7 years ago):

TAF EDFM 060519Z 0606/0621 15004KT 9999 FEW040